createdAt,value
2022-10-31T00:00:15.141Z,101486.97
2022-10-31T00:03:00.146Z,101492.31
2022-10-31T00:05:48.265Z,101496.28
2022-10-31T00:08:33.262Z,101502.69
2022-10-31T00:11:18.029Z,101490.03
2022-10-31T00:14:04.212Z,101493.31
2022-10-31T00:16:49.198Z,101502.50
2022-10-31T00:19:34.269Z,101499.47
2022-10-31T00:22:19.227Z,101499.09
2022-10-31T00:25:04.517Z,101490.78
2022-10-31T00:27:49.412Z,101480.16
2022-10-31T00:30:34.773Z,101486.91
2022-10-31T00:33:19.677Z,101506.78
2022-10-31T00:36:06.978Z,101510.47
2022-10-31T00:38:51.811Z,101514.94
2022-10-31T00:41:36.969Z,101522.31
2022-10-31T00:44:21.821Z,101517.53
2022-10-31T00:47:07.006Z,101531.19
2022-10-31T00:49:51.972Z,101530.25
2022-10-31T00:52:37.008Z,101529.50
2022-10-31T00:55:22.005Z,101517.56
2022-10-31T00:58:07.330Z,101506.47
2022-10-31T01:00:55.886Z,101490.97
2022-10-31T01:03:41.305Z,101493.03
2022-10-31T01:06:26.299Z,101492.91
2022-10-31T01:09:11.231Z,101485.13
2022-10-31T01:11:56.281Z,101479.50
2022-10-31T01:14:45.675Z,101487.78
2022-10-31T01:17:30.655Z,101494.94
2022-10-31T01:20:16.876Z,101487.41
2022-10-31T01:23:01.765Z,101487.22
2022-10-31T01:25:46.925Z,101476.88
2022-10-31T01:28:32.459Z,101467.34
2022-10-31T01:31:19.342Z,101473.22
2022-10-31T01:34:04.972Z,101480.59
2022-10-31T01:36:52.049Z,101478.59
2022-10-31T01:39:37.257Z,101463.78
2022-10-31T01:42:24.018Z,101464.63
2022-10-31T01:45:10.897Z,101468.75
2022-10-31T01:47:56.407Z,101463.91
2022-10-31T01:50:44.389Z,101461.00
2022-10-31T01:53:29.434Z,101464.81
2022-10-31T01:56:17.634Z,101457.31
2022-10-31T01:59:05.564Z,101445.78
2022-10-31T02:01:51.884Z,101454.66
2022-10-31T02:04:37.734Z,101458.53
2022-10-31T02:07:31.043Z,101461.72
2022-10-31T02:10:16.271Z,101462.69
2022-10-31T02:13:04.315Z,101472.66
2022-10-31T02:15:53.429Z,101469.69
2022-10-31T02:18:38.452Z,101483.44
2022-10-31T02:21:45.822Z,101474.38
2022-10-31T02:25:12.179Z,101481.22
2022-10-31T02:28:42.254Z,101482.00
2022-10-31T02:31:46.228Z,101470.53
2022-10-31T02:34:49.221Z,101477.97
2022-10-31T02:37:55.790Z,101486.97
2022-10-31T02:40:45.592Z,101481.19
2022-10-31T02:43:40.722Z,101481.06
2022-10-31T02:46:35.454Z,101475.22
2022-10-31T02:50:05.043Z,101489.56
2022-10-31T02:52:53.798Z,101477.50
2022-10-31T02:55:38.625Z,101481.97
2022-10-31T02:58:26.858Z,101490.31
2022-10-31T03:01:26.254Z,101482.72
2022-10-31T03:04:23.244Z,101481.44
2022-10-31T03:07:22.503Z,101480.13
2022-10-31T03:10:37.272Z,101472.13
2022-10-31T03:13:27.946Z,101481.56
2022-10-31T03:16:19.705Z,101485.38
2022-10-31T03:19:09.010Z,101486.06
2022-10-31T03:22:02.252Z,101483.19
2022-10-31T03:24:49.968Z,101475.69
2022-10-31T03:27:36.977Z,101490.63
2022-10-31T03:30:22.115Z,101478.94
2022-10-31T03:33:12.265Z,101467.03
2022-10-31T03:35:59.820Z,101477.13
2022-10-31T03:38:47.428Z,101482.28
2022-10-31T03:41:39.365Z,101479.09
2022-10-31T03:44:26.423Z,101475.84
2022-10-31T03:47:11.587Z,101471.44
2022-10-31T03:49:57.454Z,101467.72
2022-10-31T03:52:58.213Z,101473.63
2022-10-31T03:55:53.442Z,101480.09
2022-10-31T03:58:48.063Z,101473.38
2022-10-31T04:01:38.166Z,101463.75
2022-10-31T04:04:23.097Z,101462.25
2022-10-31T04:07:10.186Z,101472.34
2022-10-31T04:09:56.826Z,101466.78
2022-10-31T04:12:45.285Z,101464.00
2022-10-31T04:15:33.066Z,101471.28
2022-10-31T04:18:18.333Z,101473.25
2022-10-31T04:21:06.372Z,101471.28
2022-10-31T04:23:51.467Z,101476.75
2022-10-31T04:26:36.612Z,101468.41
2022-10-31T04:29:21.329Z,101476.66
2022-10-31T04:32:06.716Z,101482.09
2022-10-31T04:34:51.584Z,101469.84
2022-10-31T04:37:36.675Z,101470.56
2022-10-31T04:40:21.522Z,101473.38
2022-10-31T04:43:06.753Z,101469.31
2022-10-31T04:45:51.928Z,101471.56
2022-10-31T04:48:36.921Z,101468.50
2022-10-31T04:51:21.764Z,101471.97
2022-10-31T04:54:07.038Z,101465.75
2022-10-31T04:56:51.716Z,101467.13
2022-10-31T04:59:36.917Z,101465.22
2022-10-31T05:02:21.828Z,101459.75
2022-10-31T05:05:07.420Z,101455.72
2022-10-31T05:07:53.189Z,101449.88
2022-10-31T05:10:38.385Z,101447.75
2022-10-31T05:13:23.267Z,101451.69
2022-10-31T05:16:08.004Z,101458.31
2022-10-31T05:18:53.626Z,101459.72
2022-10-31T05:21:38.723Z,101455.59
2022-10-31T05:24:24.020Z,101450.28
2022-10-31T05:27:08.853Z,101446.63
2022-10-31T05:29:53.814Z,101441.88
2022-10-31T05:32:40.239Z,101442.63
2022-10-31T05:35:28.674Z,101439.81
2022-10-31T05:38:13.832Z,101439.53
2022-10-31T05:41:00.799Z,101443.59
2022-10-31T05:43:46.508Z,101437.31
2022-10-31T05:46:31.844Z,101434.09
2022-10-31T05:49:18.241Z,101441.94
2022-10-31T05:52:03.448Z,101428.69
2022-10-31T05:54:48.272Z,101430.09
2022-10-31T05:57:34.515Z,101424.97
2022-10-31T06:00:20.802Z,101426.47
2022-10-31T06:05:55.460Z,101427.59
2022-10-31T06:08:41.279Z,101434.03
2022-10-31T06:11:26.034Z,101430.53
2022-10-31T06:14:10.946Z,101430.38
2022-10-31T06:16:56.817Z,101424.25
2022-10-31T06:19:41.793Z,101424.13
2022-10-31T06:22:27.035Z,101417.97
2022-10-31T06:25:11.946Z,101419.25
2022-10-31T06:27:57.876Z,101425.69
2022-10-31T06:30:42.802Z,101435.16
2022-10-31T06:33:28.068Z,101429.03
2022-10-31T06:36:12.954Z,101423.16
2022-10-31T06:38:57.649Z,101433.06
2022-10-31T06:41:42.649Z,101427.72
2022-10-31T06:44:27.660Z,101428.00
2022-10-31T06:47:12.412Z,101423.38
2022-10-31T06:49:57.214Z,101414.19
2022-10-31T06:52:42.368Z,101415.69
2022-10-31T06:55:27.742Z,101421.41
2022-10-31T06:58:12.526Z,101420.28
2022-10-31T07:01:00.718Z,101420.53
2022-10-31T07:03:45.571Z,101419.81
2022-10-31T07:06:30.763Z,101423.97
2022-10-31T07:09:15.600Z,101425.22
2022-10-31T07:12:00.870Z,101424.09
2022-10-31T07:14:46.017Z,101423.34
2022-10-31T07:17:31.578Z,101435.47
2022-10-31T07:20:16.610Z,101439.41
2022-10-31T07:23:02.033Z,101444.72
2022-10-31T07:25:47.324Z,101452.56
2022-10-31T07:28:32.382Z,101452.81
2022-10-31T07:31:17.309Z,101451.44
2022-10-31T07:34:02.398Z,101444.19
2022-10-31T07:36:47.435Z,101440.91
2022-10-31T07:39:32.617Z,101454.00
2022-10-31T07:42:17.475Z,101459.59
2022-10-31T07:45:02.709Z,101458.56
2022-10-31T07:47:50.394Z,101458.50
2022-10-31T07:50:35.728Z,101463.69
2022-10-31T07:53:21.077Z,101454.50
2022-10-31T07:56:06.229Z,101457.13
2022-10-31T07:58:51.088Z,101456.16
2022-10-31T08:01:36.153Z,101459.03
2022-10-31T08:04:21.045Z,101462.00
2022-10-31T08:07:06.143Z,101465.34
2022-10-31T08:09:51.246Z,101459.13
2022-10-31T08:12:36.590Z,101461.91
2022-10-31T08:15:21.438Z,101454.69
2022-10-31T08:18:07.655Z,101450.88
2022-10-31T08:20:54.321Z,101455.06
2022-10-31T08:23:39.154Z,101451.59
2022-10-31T08:26:24.322Z,101439.41
2022-10-31T08:29:09.605Z,101440.75
2022-10-31T08:31:54.906Z,101440.31
2022-10-31T08:34:39.905Z,101430.38
2022-10-31T08:37:25.067Z,101432.78
2022-10-31T08:40:10.411Z,101421.72
2022-10-31T08:43:07.011Z,101429.41
2022-10-31T08:45:51.951Z,101427.91
2022-10-31T08:48:37.110Z,101427.59
2022-10-31T08:51:21.998Z,101426.28
2022-10-31T08:54:07.126Z,101423.84
2022-10-31T08:56:55.237Z,101424.09
2022-10-31T08:59:40.064Z,101423.41
2022-10-31T09:02:25.212Z,101416.69
2022-10-31T09:05:10.103Z,101407.97
2022-10-31T09:08:00.052Z,101408.31
2022-10-31T09:10:46.169Z,101397.41
2022-10-31T09:13:30.942Z,101395.69
2022-10-31T09:16:16.080Z,101401.91
2022-10-31T09:19:01.245Z,101402.78
2022-10-31T09:21:46.335Z,101396.91
2022-10-31T09:24:31.402Z,101393.66
2022-10-31T09:27:16.412Z,101397.22
2022-10-31T09:30:01.519Z,101398.88
2022-10-31T09:32:46.281Z,101379.22
2022-10-31T09:35:31.538Z,101387.69
2022-10-31T09:38:20.039Z,101365.41
2022-10-31T09:41:19.570Z,101362.56
2022-10-31T09:44:25.406Z,101362.41
2022-10-31T09:47:30.023Z,101345.22
2022-10-31T09:50:22.063Z,101344.41
2022-10-31T09:53:21.180Z,101341.50
2022-10-31T09:56:13.855Z,101338.41
2022-10-31T09:59:01.564Z,101332.72
2022-10-31T10:02:00.252Z,101341.28
2022-10-31T10:05:01.708Z,101336.19
2022-10-31T10:08:24.457Z,101335.72
2022-10-31T10:11:35.911Z,101320.53
2022-10-31T10:14:23.507Z,101313.34
2022-10-31T10:17:25.929Z,101311.66
2022-10-31T10:20:19.823Z,101302.63
2022-10-31T10:23:27.517Z,101304.38
2022-10-31T10:26:36.814Z,101298.53
2022-10-31T10:29:52.683Z,101294.78
2022-10-31T10:32:51.081Z,101294.63
2022-10-31T10:35:43.830Z,101298.38
2022-10-31T10:38:52.633Z,101290.88
2022-10-31T10:41:42.288Z,101281.50
2022-10-31T10:44:45.623Z,101289.56
2022-10-31T10:47:39.825Z,101276.06
2022-10-31T10:50:33.617Z,101263.31
2022-10-31T10:53:37.753Z,101266.28
2022-10-31T10:56:37.523Z,101268.97
2022-10-31T10:59:23.331Z,101284.41
2022-10-31T11:02:19.490Z,101275.19
2022-10-31T11:05:31.574Z,101274.50
2022-10-31T11:08:27.881Z,101262.97
2022-10-31T11:11:18.992Z,101250.38
2022-10-31T11:14:07.151Z,101247.56
2022-10-31T11:17:20.286Z,101256.00
2022-10-31T11:20:17.829Z,101240.59
2022-10-31T11:23:17.062Z,101242.66
2022-10-31T11:26:06.862Z,101233.38
2022-10-31T11:29:00.673Z,101234.50
2022-10-31T11:31:48.139Z,101228.47
2022-10-31T11:34:43.182Z,101222.53
2022-10-31T11:37:32.366Z,101216.34
2022-10-31T11:40:21.060Z,101212.75
2022-10-31T11:43:06.106Z,101207.59
2022-10-31T11:45:51.761Z,101202.63
2022-10-31T11:48:37.609Z,101198.84
2022-10-31T11:51:25.960Z,101193.78
2022-10-31T11:54:22.955Z,101190.00
2022-10-31T11:57:23.493Z,101187.59
2022-10-31T12:03:54.696Z,101173.59
2022-10-31T12:06:41.567Z,101169.78
2022-10-31T12:09:30.853Z,101162.22
2022-10-31T12:12:44.078Z,101164.19
2022-10-31T12:15:38.853Z,101153.97
2022-10-31T12:18:47.448Z,101148.38
2022-10-31T12:21:58.034Z,101148.88
2022-10-31T12:24:55.643Z,101143.78
2022-10-31T12:28:09.783Z,101131.69
2022-10-31T12:31:33.388Z,101121.63
2022-10-31T12:34:34.260Z,101108.75
2022-10-31T12:37:51.257Z,101103.28
2022-10-31T12:40:49.836Z,101098.53
2022-10-31T12:43:59.906Z,101084.56
2022-10-31T12:46:57.016Z,101084.53
2022-10-31T12:50:16.246Z,101073.25
2022-10-31T12:53:27.410Z,101055.34
2022-10-31T12:56:19.806Z,101053.50
2022-10-31T12:59:29.676Z,101037.88
2022-10-31T13:02:40.928Z,101034.16
2022-10-31T13:05:31.210Z,101036.84
2022-10-31T13:08:20.773Z,101023.69
2022-10-31T13:11:11.911Z,101024.53
2022-10-31T13:14:06.223Z,101021.94
2022-10-31T13:16:52.336Z,101012.84
2022-10-31T13:19:46.200Z,101011.97
2022-10-31T13:22:36.461Z,101014.28
2022-10-31T13:25:26.603Z,101002.97
2022-10-31T13:31:42.471Z,101009.50
2022-10-31T13:34:39.436Z,100994.91
2022-10-31T13:37:36.051Z,100988.09
2022-10-31T13:40:50.221Z,100980.31
2022-10-31T13:44:01.958Z,100981.94
2022-10-31T13:46:47.178Z,100983.59
2022-10-31T13:49:32.301Z,100974.59
2022-10-31T13:52:25.298Z,100973.56
2022-10-31T13:55:38.435Z,100967.97
2022-10-31T13:58:26.848Z,100956.06
2022-10-31T14:01:19.979Z,100942.72
2022-10-31T14:04:23.927Z,100932.47
2022-10-31T14:07:14.265Z,100925.88
2022-10-31T14:10:36.085Z,100922.13
2022-10-31T14:13:32.293Z,100914.88
2022-10-31T14:16:29.381Z,100918.63
2022-10-31T14:19:20.670Z,100920.63
2022-10-31T14:22:24.101Z,100902.06
2022-10-31T14:25:30.630Z,100904.34
2022-10-31T14:28:33.280Z,100901.88
2022-10-31T14:31:38.433Z,100888.72
2022-10-31T14:34:34.430Z,100905.41
2022-10-31T14:37:43.390Z,100899.28
2022-10-31T14:40:36.410Z,100895.75
2022-10-31T14:43:48.718Z,100904.34
2022-10-31T14:46:59.728Z,100896.09
2022-10-31T14:49:47.484Z,100887.88
2022-10-31T14:52:33.004Z,100881.69
2022-10-31T14:55:19.456Z,100879.81
2022-10-31T14:58:08.225Z,100859.03
2022-10-31T15:00:56.962Z,100857.38
2022-10-31T15:04:10.186Z,100862.75
2022-10-31T15:07:24.694Z,100847.22
2022-10-31T15:10:40.375Z,100855.41
2022-10-31T15:13:25.549Z,100834.44
2022-10-31T15:16:12.425Z,100827.66
2022-10-31T15:19:06.818Z,100835.50
2022-10-31T15:21:54.306Z,100831.09
2022-10-31T15:24:39.911Z,100829.44
2022-10-31T15:27:25.659Z,100821.22
2022-10-31T15:30:25.597Z,100816.84
2022-10-31T15:33:33.635Z,100813.94
2022-10-31T15:36:28.537Z,100804.50
2022-10-31T15:39:16.545Z,100803.22
2022-10-31T15:42:01.982Z,100802.91
2022-10-31T15:44:52.787Z,100796.31
2022-10-31T15:47:38.145Z,100796.81
2022-10-31T15:50:34.764Z,100796.19
2022-10-31T15:53:27.335Z,100794.88
2022-10-31T15:56:20.995Z,100787.88
2022-10-31T15:59:06.278Z,100784.34
2022-10-31T16:02:02.839Z,100791.72
2022-10-31T16:04:54.486Z,100784.03
2022-10-31T16:07:50.319Z,100784.63
2022-10-31T16:10:38.386Z,100776.69
2022-10-31T16:13:28.820Z,100777.00
2022-10-31T16:19:37.396Z,100780.88
2022-10-31T16:22:31.084Z,100780.63
2022-10-31T16:25:22.992Z,100783.94
2022-10-31T16:28:17.880Z,100774.31
2022-10-31T16:31:14.140Z,100775.72
2022-10-31T16:34:34.303Z,100776.53
2022-10-31T16:37:19.187Z,100778.06
2022-10-31T16:40:04.715Z,100773.25
2022-10-31T16:42:50.024Z,100779.13
2022-10-31T16:45:35.102Z,100770.72
2022-10-31T16:48:23.382Z,100776.66
2022-10-31T16:51:09.678Z,100785.34
2022-10-31T16:53:54.562Z,100789.78
2022-10-31T16:56:39.783Z,100784.41
2022-10-31T16:59:24.929Z,100790.69
2022-10-31T17:02:15.614Z,100798.41
2022-10-31T17:05:00.535Z,100789.16
2022-10-31T17:07:46.342Z,100792.72
2022-10-31T17:10:31.446Z,100790.63
2022-10-31T17:13:20.957Z,100791.63
2022-10-31T17:16:06.361Z,100790.38
2022-10-31T17:18:51.247Z,100786.34
2022-10-31T17:21:36.530Z,100787.75
2022-10-31T17:24:21.637Z,100778.72
2022-10-31T17:27:07.054Z,100785.44
2022-10-31T17:29:51.945Z,100777.31
2022-10-31T17:32:37.190Z,100774.19
2022-10-31T17:35:23.090Z,100781.78
2022-10-31T17:38:08.545Z,100787.94
2022-10-31T17:40:53.469Z,100785.19
2022-10-31T17:43:38.502Z,100791.91
2022-10-31T17:46:24.017Z,100784.22
2022-10-31T17:49:11.781Z,100777.69
2022-10-31T17:51:56.391Z,100780.22
2022-10-31T17:54:41.526Z,100777.38
2022-10-31T17:57:26.654Z,100780.78
2022-10-31T18:00:14.864Z,100778.31
2022-10-31T18:03:01.400Z,100777.03
2022-10-31T18:05:57.570Z,100767.91
2022-10-31T18:08:43.499Z,100774.28
2022-10-31T18:11:28.629Z,100764.63
2022-10-31T18:14:13.637Z,100754.88
2022-10-31T18:16:58.710Z,100765.63
2022-10-31T18:19:43.838Z,100755.03
2022-10-31T18:22:29.227Z,100764.13
2022-10-31T18:25:14.239Z,100760.78
2022-10-31T18:27:59.630Z,100756.28
2022-10-31T18:30:44.787Z,100748.34
2022-10-31T18:33:30.111Z,100753.38
2022-10-31T18:36:15.210Z,100750.22
2022-10-31T18:39:00.999Z,100756.50
2022-10-31T18:41:46.197Z,100754.34
2022-10-31T18:44:31.953Z,100757.22
2022-10-31T18:47:19.059Z,100760.13
2022-10-31T18:50:04.817Z,100756.53
2022-10-31T18:52:49.956Z,100752.06
2022-10-31T18:55:43.875Z,100741.56
2022-10-31T18:58:32.612Z,100747.34
2022-10-31T19:01:20.055Z,100742.16
2022-10-31T19:04:05.526Z,100744.03
2022-10-31T19:06:50.632Z,100743.91
2022-10-31T19:09:35.933Z,100743.22
2022-10-31T19:12:21.037Z,100738.81
2022-10-31T19:15:06.608Z,100740.97
2022-10-31T19:17:51.689Z,100739.63
2022-10-31T19:20:40.037Z,100740.09
2022-10-31T19:23:25.221Z,100737.38
2022-10-31T19:26:10.730Z,100734.28
2022-10-31T19:28:56.604Z,100733.53
2022-10-31T19:31:41.462Z,100728.50
2022-10-31T19:34:26.685Z,100731.00
2022-10-31T19:37:11.695Z,100729.22
2022-10-31T19:39:56.745Z,100723.41
2022-10-31T19:42:42.129Z,100716.97
2022-10-31T19:45:26.777Z,100727.13
2022-10-31T19:48:11.636Z,100724.63
2022-10-31T19:51:05.471Z,100730.28
2022-10-31T19:53:50.294Z,100716.69
2022-10-31T19:56:35.420Z,100728.34
2022-10-31T19:59:20.497Z,100721.94
2022-10-31T20:02:05.546Z,100718.59
2022-10-31T20:04:50.670Z,100709.78
2022-10-31T20:07:35.953Z,100706.44
2022-10-31T20:10:21.076Z,100704.13
2022-10-31T20:13:06.310Z,100698.22
2022-10-31T20:15:52.031Z,100695.66
2022-10-31T20:18:38.298Z,100697.97
2022-10-31T20:21:26.598Z,100691.31
2022-10-31T20:24:11.785Z,100693.25
2022-10-31T20:26:56.822Z,100684.72
2022-10-31T20:29:42.068Z,100688.41
2022-10-31T20:32:27.141Z,100683.28
2022-10-31T20:35:12.049Z,100684.81
2022-10-31T20:37:57.253Z,100676.56
2022-10-31T20:40:42.665Z,100676.25
2022-10-31T20:43:27.446Z,100676.38
2022-10-31T20:46:19.669Z,100679.34
2022-10-31T20:49:04.934Z,100676.59
2022-10-31T20:51:49.773Z,100661.28
2022-10-31T20:54:34.861Z,100662.97
2022-10-31T20:57:19.802Z,100657.50
2022-10-31T21:00:05.633Z,100661.97
2022-10-31T21:02:50.594Z,100658.00
2022-10-31T21:05:35.701Z,100652.38
2022-10-31T21:08:21.096Z,100651.94
2022-10-31T21:11:11.712Z,100655.59
2022-10-31T21:13:58.503Z,100648.59
2022-10-31T21:16:43.670Z,100649.31
2022-10-31T21:19:28.757Z,100642.38
2022-10-31T21:22:13.658Z,100642.81
2022-10-31T21:24:58.851Z,100631.00
2022-10-31T21:27:43.844Z,100638.66
2022-10-31T21:30:28.920Z,100630.34
2022-10-31T21:33:14.377Z,100634.66
2022-10-31T21:35:59.681Z,100639.97
2022-10-31T21:38:44.544Z,100633.31
2022-10-31T21:41:29.795Z,100627.47
2022-10-31T21:44:14.706Z,100634.63
2022-10-31T21:46:59.529Z,100633.94
2022-10-31T21:49:44.802Z,100632.06
2022-10-31T21:52:29.659Z,100632.19
2022-10-31T21:55:14.605Z,100619.59
2022-10-31T21:57:59.802Z,100623.56
2022-10-31T22:00:44.968Z,100622.59
2022-10-31T22:03:30.020Z,100619.44
2022-10-31T22:06:15.503Z,100612.13
2022-10-31T22:09:03.397Z,100610.47
2022-10-31T22:11:48.209Z,100612.47
2022-10-31T22:14:33.334Z,100600.66
2022-10-31T22:17:18.060Z,100594.34
2022-10-31T22:20:03.334Z,100599.66
2022-10-31T22:22:48.498Z,100592.69
2022-10-31T22:25:37.284Z,100597.50
2022-10-31T22:28:22.420Z,100589.81
2022-10-31T22:31:09.634Z,100599.56
2022-10-31T22:33:55.860Z,100601.88
2022-10-31T22:36:41.486Z,100595.38
2022-10-31T22:39:26.479Z,100594.34
2022-10-31T22:42:11.269Z,100594.44
2022-10-31T22:44:56.461Z,100595.63
2022-10-31T22:50:32.407Z,100598.81
2022-10-31T22:53:17.694Z,100602.31
2022-10-31T22:56:04.212Z,100605.41
2022-10-31T22:58:49.675Z,100612.09
2022-10-31T23:01:35.013Z,100605.25
2022-10-31T23:04:20.012Z,100606.53
2022-10-31T23:07:05.201Z,100604.06
2022-10-31T23:09:50.683Z,100606.69
2022-10-31T23:12:55.150Z,100606.47
2022-10-31T23:15:40.178Z,100607.88
2022-10-31T23:18:48.479Z,100593.94
2022-10-31T23:21:43.620Z,100589.81
2022-10-31T23:24:46.057Z,100587.16
2022-10-31T23:27:31.239Z,100582.38
2022-10-31T23:30:16.539Z,100585.09
2022-10-31T23:33:01.916Z,100576.41
2022-10-31T23:35:47.261Z,100579.94
2022-10-31T23:38:32.226Z,100571.81
2022-10-31T23:41:17.147Z,100568.47
2022-10-31T23:44:02.154Z,100564.28
2022-10-31T23:46:47.250Z,100569.66
2022-10-31T23:49:32.547Z,100570.09
2022-10-31T23:52:18.039Z,100573.44
2022-10-31T23:55:03.347Z,100564.41
2022-10-31T23:57:48.102Z,100553.09
